createdAt,value
2023-05-15T00:01:49.276Z,4.00
2023-05-15T00:03:53.075Z,3.10
2023-05-15T00:05:56.759Z,3.77
2023-05-15T00:08:00.268Z,3.67
2023-05-15T00:10:03.935Z,4.90
2023-05-15T00:12:08.749Z,3.70
2023-05-15T00:14:12.070Z,3.60
2023-05-15T00:16:15.658Z,4.90
2023-05-15T00:18:20.564Z,4.60
2023-05-15T00:20:23.899Z,4.67
2023-05-15T00:22:27.301Z,4.33
2023-05-15T00:24:30.701Z,4.37
2023-05-15T00:26:34.110Z,4.30
2023-05-15T00:28:37.522Z,3.57
2023-05-15T00:30:40.938Z,5.90
2023-05-15T00:32:44.612Z,4.20
2023-05-15T00:34:49.337Z,3.87
2023-05-15T00:36:52.973Z,5.13
2023-05-15T00:38:56.632Z,4.03
2023-05-15T00:41:00.741Z,4.83
2023-05-15T00:43:05.515Z,4.33
2023-05-15T00:45:12.257Z,4.27
2023-05-15T00:47:17.462Z,4.37
2023-05-15T00:49:22.967Z,4.50
2023-05-15T00:51:28.357Z,5.43
2023-05-15T00:53:32.159Z,4.70
2023-05-15T00:55:37.543Z,4.60
2023-05-15T00:57:43.320Z,4.10
2023-05-15T00:59:49.108Z,5.33
2023-05-15T01:01:53.342Z,4.87
2023-05-15T01:03:57.394Z,14.40
2023-05-15T01:06:01.147Z,9.70
2023-05-15T01:08:10.532Z,9.60
2023-05-15T01:10:15.674Z,7.43
2023-05-15T01:12:20.754Z,8.53
2023-05-15T01:14:24.865Z,7.43
2023-05-15T01:16:28.666Z,9.07
2023-05-15T01:18:33.348Z,9.37
2023-05-15T01:20:58.913Z,9.23
2023-05-15T01:23:13.369Z,9.73
2023-05-15T01:25:54.131Z,11.63
2023-05-15T01:28:04.500Z,11.03
2023-05-15T01:30:15.967Z,12.93
2023-05-15T01:32:25.296Z,15.00
2023-05-15T01:34:35.332Z,13.60
2023-05-15T01:36:44.203Z,11.93
2023-05-15T01:38:51.645Z,16.60
2023-05-15T01:41:03.125Z,14.07
2023-05-15T01:43:10.512Z,13.67
2023-05-15T01:45:14.915Z,14.83
2023-05-15T01:47:22.269Z,12.57
2023-05-15T01:49:28.568Z,14.37
2023-05-15T01:51:34.386Z,15.47
2023-05-15T01:53:40.182Z,14.13
2023-05-15T01:55:44.598Z,16.80
2023-05-15T01:57:49.546Z,16.27
2023-05-15T01:59:55.470Z,20.80
2023-05-15T02:02:01.128Z,18.50
2023-05-15T02:04:05.461Z,18.63
2023-05-15T02:06:10.390Z,17.03
2023-05-15T02:08:15.399Z,19.10
2023-05-15T02:10:21.054Z,19.67
2023-05-15T02:12:25.215Z,16.90
2023-05-15T02:14:29.972Z,19.03
2023-05-15T02:16:35.232Z,20.80
2023-05-15T02:18:38.639Z,17.90
2023-05-15T02:20:42.357Z,18.90
2023-05-15T02:22:45.964Z,23.40
2023-05-15T02:24:51.140Z,28.47
2023-05-15T02:27:02.147Z,31.00
2023-05-15T02:29:14.919Z,31.93
2023-05-15T02:31:27.664Z,38.33
2023-05-15T02:33:38.972Z,39.07
2023-05-15T02:35:49.530Z,43.53
2023-05-15T02:37:56.232Z,40.37
2023-05-15T02:40:02.777Z,48.07
2023-05-15T02:42:07.573Z,37.00
2023-05-15T02:44:13.074Z,36.13
2023-05-15T02:46:17.727Z,37.23
2023-05-15T02:48:22.201Z,32.00
2023-05-15T02:50:27.159Z,30.17
2023-05-15T02:52:31.146Z,28.33
2023-05-15T02:54:34.644Z,29.10
2023-05-15T02:56:38.978Z,25.60
2023-05-15T02:58:42.825Z,29.67
2023-05-15T03:00:46.235Z,24.60
2023-05-15T03:02:49.669Z,25.33
2023-05-15T03:04:53.077Z,23.33
2023-05-15T03:06:57.962Z,24.00
2023-05-15T03:09:01.351Z,23.97
2023-05-15T03:11:05.407Z,26.87
2023-05-15T03:13:08.967Z,23.77
2023-05-15T03:15:12.353Z,25.40
2023-05-15T03:17:16.119Z,22.53
2023-05-15T03:19:20.158Z,23.23
2023-05-15T03:21:23.651Z,22.97
2023-05-15T03:23:28.625Z,20.90
2023-05-15T03:25:32.436Z,21.43
2023-05-15T03:27:35.974Z,22.43
2023-05-15T03:29:40.035Z,22.00
2023-05-15T03:31:43.692Z,20.73
2023-05-15T03:33:49.918Z,22.57
2023-05-15T03:35:53.434Z,21.77
2023-05-15T03:37:56.873Z,19.27
2023-05-15T03:40:01.742Z,18.20
2023-05-15T03:42:05.739Z,17.37
2023-05-15T03:44:09.728Z,18.30
2023-05-15T03:46:13.154Z,21.63
2023-05-15T03:48:18.448Z,22.07
2023-05-15T03:50:21.828Z,20.80
2023-05-15T03:52:25.254Z,20.47
2023-05-15T03:54:29.165Z,25.77
2023-05-15T03:56:34.246Z,23.43
2023-05-15T03:58:39.252Z,19.53
2023-05-15T04:00:42.624Z,24.07
2023-05-15T04:02:46.208Z,20.97
2023-05-15T04:04:49.855Z,23.50
2023-05-15T04:06:53.431Z,26.17
2023-05-15T04:08:56.849Z,26.07
2023-05-15T04:11:00.305Z,27.00
2023-05-15T04:13:05.042Z,22.10
2023-05-15T04:15:16.273Z,19.13
2023-05-15T04:17:24.503Z,20.30
2023-05-15T04:19:33.363Z,30.40
2023-05-15T04:21:41.245Z,25.93
2023-05-15T04:23:48.838Z,24.90
2023-05-15T04:25:53.747Z,25.37
2023-05-15T04:27:58.262Z,21.13
2023-05-15T04:30:03.607Z,23.13
2023-05-15T04:32:07.160Z,23.77
2023-05-15T04:34:10.738Z,34.73
2023-05-15T04:36:14.842Z,28.83
2023-05-15T04:38:18.417Z,32.23
2023-05-15T04:40:21.816Z,32.70
2023-05-15T04:42:25.387Z,32.40
2023-05-15T04:44:29.012Z,31.13
2023-05-15T04:46:37.218Z,35.63
2023-05-15T04:48:40.979Z,27.67
2023-05-15T04:50:44.894Z,32.17
2023-05-15T04:52:48.629Z,32.77
2023-05-15T04:54:53.086Z,29.67
2023-05-15T04:56:56.538Z,30.27
2023-05-15T04:59:00.111Z,25.70
2023-05-15T05:01:04.402Z,33.00
2023-05-15T05:03:09.470Z,31.07
2023-05-15T05:05:14.591Z,30.53
2023-05-15T05:07:18.397Z,33.50
2023-05-15T05:09:22.163Z,33.97
2023-05-15T05:11:25.944Z,32.53
2023-05-15T05:13:29.269Z,32.63
2023-05-15T05:15:32.656Z,35.17
2023-05-15T05:17:36.066Z,32.17
2023-05-15T05:19:41.737Z,30.13
2023-05-15T05:21:45.181Z,27.57
2023-05-15T05:23:49.260Z,30.30
2023-05-15T05:25:52.746Z,25.20
2023-05-15T05:27:56.102Z,27.60
2023-05-15T05:29:59.459Z,29.43
2023-05-15T05:32:02.864Z,26.57
2023-05-15T05:34:06.526Z,24.23
2023-05-15T05:36:12.408Z,27.60
2023-05-15T05:38:15.907Z,32.97
2023-05-15T05:40:19.547Z,32.70
2023-05-15T05:42:23.067Z,37.30
2023-05-15T05:44:26.912Z,34.57
2023-05-15T05:46:30.618Z,36.07
2023-05-15T05:48:34.294Z,28.63
2023-05-15T05:50:37.911Z,35.20
2023-05-15T05:52:42.612Z,28.50
2023-05-15T05:54:48.029Z,30.17
2023-05-15T05:56:51.449Z,34.93
2023-05-15T05:58:56.390Z,25.17
2023-05-15T06:01:00.780Z,29.93
2023-05-15T06:03:04.615Z,27.70
2023-05-15T06:05:09.821Z,26.27
2023-05-15T06:07:13.512Z,26.33
2023-05-15T06:09:18.267Z,29.67
2023-05-15T06:11:23.787Z,30.60
2023-05-15T06:13:28.967Z,25.10
2023-05-15T06:15:32.455Z,29.30
2023-05-15T06:17:35.869Z,30.37
2023-05-15T06:19:39.596Z,29.03
2023-05-15T06:21:45.510Z,30.50
2023-05-15T06:23:48.943Z,27.00
2023-05-15T06:25:53.923Z,27.73
2023-05-15T06:27:58.638Z,26.40
2023-05-15T06:30:01.987Z,28.50
2023-05-15T06:32:06.216Z,43.30
2023-05-15T06:34:09.811Z,30.50
2023-05-15T06:36:13.412Z,26.00
2023-05-15T06:38:16.946Z,28.57
2023-05-15T06:40:20.403Z,28.13
2023-05-15T06:42:25.557Z,27.73
2023-05-15T06:44:29.110Z,25.80
2023-05-15T06:46:32.598Z,33.77
2023-05-15T06:48:37.290Z,28.53
2023-05-15T06:50:40.910Z,29.60
2023-05-15T06:52:44.262Z,25.70
2023-05-15T06:54:48.437Z,30.23
2023-05-15T06:56:52.073Z,28.70
2023-05-15T06:58:56.875Z,25.50
2023-05-15T07:01:03.860Z,26.30
2023-05-15T07:03:07.291Z,32.30
2023-05-15T07:05:11.553Z,31.43
2023-05-15T07:07:15.067Z,30.40
2023-05-15T07:09:18.534Z,28.63
2023-05-15T07:11:22.032Z,25.57
2023-05-15T07:13:25.651Z,31.53
2023-05-15T07:15:30.403Z,31.80
2023-05-15T07:17:35.155Z,30.10
2023-05-15T07:19:38.841Z,30.33
2023-05-15T07:21:42.850Z,30.13
2023-05-15T07:23:46.835Z,30.93
2023-05-15T07:25:50.409Z,32.00
2023-05-15T07:27:53.941Z,35.57
2023-05-15T07:29:57.416Z,31.30
2023-05-15T07:32:02.150Z,31.27
2023-05-15T07:34:05.554Z,30.40
2023-05-15T07:36:09.261Z,29.27
2023-05-15T07:38:13.620Z,29.57
2023-05-15T07:40:17.118Z,27.97
2023-05-15T07:42:20.833Z,25.73
2023-05-15T07:44:24.811Z,34.23
2023-05-15T07:46:28.470Z,30.80
2023-05-15T07:48:33.417Z,33.03
2023-05-15T07:50:36.806Z,29.43
2023-05-15T07:52:40.369Z,29.37
2023-05-15T07:54:43.828Z,24.17
2023-05-15T07:56:47.626Z,28.90
2023-05-15T07:58:51.129Z,26.63
2023-05-15T08:00:54.672Z,31.70
2023-05-15T08:02:59.903Z,31.23
2023-05-15T08:05:05.424Z,34.20
2023-05-15T08:07:09.064Z,32.60
2023-05-15T08:09:12.812Z,31.80
2023-05-15T08:11:19.143Z,31.03
2023-05-15T08:13:22.590Z,29.37
2023-05-15T08:15:26.150Z,28.87
2023-05-15T08:17:29.785Z,35.40
2023-05-15T08:19:33.227Z,32.37
2023-05-15T08:21:38.384Z,30.83
2023-05-15T08:23:42.003Z,28.37
2023-05-15T08:25:45.565Z,29.77
2023-05-15T08:27:49.132Z,35.03
2023-05-15T08:29:54.385Z,30.03
2023-05-15T08:31:58.235Z,28.47
2023-05-15T08:34:01.747Z,33.03
2023-05-15T08:36:06.186Z,32.93
2023-05-15T08:38:11.284Z,29.67
2023-05-15T08:40:15.317Z,28.70
2023-05-15T08:42:22.828Z,27.47
2023-05-15T08:44:26.336Z,29.27
2023-05-15T08:46:30.146Z,33.57
2023-05-15T08:48:39.228Z,31.00
2023-05-15T08:50:44.494Z,34.40
2023-05-15T08:52:49.114Z,32.13
2023-05-15T08:54:54.482Z,27.90
2023-05-15T08:56:58.409Z,28.03
2023-05-15T08:59:02.247Z,27.67
2023-05-15T09:01:07.239Z,32.20
2023-05-15T09:03:15.692Z,27.33
2023-05-15T09:05:19.333Z,31.23
2023-05-15T09:07:23.195Z,28.30
2023-05-15T09:09:29.351Z,26.87
2023-05-15T09:11:35.391Z,21.13
2023-05-15T09:13:39.021Z,28.67
2023-05-15T09:15:43.119Z,26.70
2023-05-15T09:17:47.110Z,28.63
2023-05-15T09:19:50.650Z,27.50
2023-05-15T09:21:54.298Z,28.43
2023-05-15T09:24:17.873Z,25.67
2023-05-15T09:26:21.581Z,30.40
2023-05-15T09:28:32.050Z,26.40
2023-05-15T09:30:38.934Z,24.83
2023-05-15T09:32:42.682Z,26.60
2023-05-15T09:34:46.454Z,26.33
2023-05-15T09:36:49.871Z,25.77
2023-05-15T09:39:00.192Z,24.97
2023-05-15T09:41:04.940Z,26.33
2023-05-15T09:43:11.245Z,27.23
2023-05-15T09:45:19.714Z,25.57
2023-05-15T09:47:23.781Z,23.30
2023-05-15T09:49:31.053Z,23.13
2023-05-15T09:51:37.008Z,21.97
2023-05-15T09:53:40.943Z,21.50
2023-05-15T09:55:44.822Z,22.40
2023-05-15T09:58:06.465Z,21.30
2023-05-15T10:00:12.491Z,20.33
2023-05-15T10:02:24.627Z,23.23
2023-05-15T10:04:35.029Z,23.60
2023-05-15T10:06:42.606Z,21.23
2023-05-15T10:08:52.565Z,19.70
2023-05-15T10:10:58.831Z,21.07
2023-05-15T10:13:04.830Z,19.00
2023-05-15T10:15:09.644Z,22.90
2023-05-15T10:17:14.673Z,19.17
2023-05-15T10:19:23.927Z,22.03
2023-05-15T10:21:28.912Z,21.17
2023-05-15T10:23:36.247Z,19.50
2023-05-15T10:25:43.446Z,22.97
2023-05-15T10:27:47.967Z,18.50
2023-05-15T10:29:52.508Z,18.10
2023-05-15T10:31:56.891Z,16.53
2023-05-15T10:34:02.107Z,19.90
2023-05-15T10:36:09.799Z,21.33
2023-05-15T10:38:14.526Z,19.40
2023-05-15T10:40:18.966Z,20.53
2023-05-15T10:42:24.687Z,20.53
2023-05-15T10:44:28.110Z,17.90
2023-05-15T10:46:35.848Z,15.70
2023-05-15T10:48:41.051Z,18.10
2023-05-15T10:50:44.705Z,17.33
2023-05-15T10:52:52.581Z,18.00
2023-05-15T10:54:56.919Z,18.00
2023-05-15T10:57:00.723Z,19.80
2023-05-15T10:59:07.926Z,17.53
2023-05-15T11:01:26.591Z,17.33
2023-05-15T11:03:48.868Z,17.47
2023-05-15T11:06:10.479Z,17.40
2023-05-15T11:08:27.560Z,16.00
2023-05-15T11:10:38.837Z,13.60
2023-05-15T11:13:00.172Z,12.50
2023-05-15T11:15:20.061Z,12.30
2023-05-15T11:17:24.941Z,14.07
2023-05-15T11:19:35.845Z,15.27
2023-05-15T11:21:46.459Z,17.10
2023-05-15T11:24:05.253Z,15.27
2023-05-15T11:26:09.272Z,16.90
2023-05-15T11:28:23.689Z,15.67
2023-05-15T11:30:38.160Z,16.53
2023-05-15T11:32:58.263Z,15.20
2023-05-15T11:35:04.045Z,15.67
2023-05-15T11:37:11.448Z,14.30
2023-05-15T11:39:16.315Z,15.27
2023-05-15T11:41:24.910Z,15.73
2023-05-15T11:43:29.733Z,18.63
2023-05-15T11:45:36.117Z,16.63
2023-05-15T11:47:39.745Z,17.30
2023-05-15T11:49:43.873Z,16.97
2023-05-15T11:51:49.658Z,15.80
2023-05-15T11:53:54.665Z,14.70
2023-05-15T11:56:00.064Z,17.67
2023-05-15T11:58:04.380Z,12.70
2023-05-15T12:00:10.058Z,17.10
2023-05-15T12:02:13.797Z,17.00
2023-05-15T12:04:19.264Z,14.27
2023-05-15T12:06:24.395Z,17.70
2023-05-15T12:08:32.919Z,16.60
2023-05-15T12:10:42.034Z,16.13
2023-05-15T12:12:48.107Z,13.23
2023-05-15T12:14:51.870Z,14.83
2023-05-15T12:16:58.205Z,13.67
2023-05-15T12:19:01.967Z,15.10
2023-05-15T12:21:06.289Z,13.97
2023-05-15T12:23:09.803Z,13.03
2023-05-15T12:25:14.191Z,11.60
2023-05-15T12:27:17.965Z,13.77
2023-05-15T12:29:22.861Z,14.90
2023-05-15T12:31:26.466Z,13.57
2023-05-15T12:33:30.052Z,10.87
2023-05-15T12:35:35.508Z,12.90
2023-05-15T12:37:39.729Z,10.30
2023-05-15T12:40:01.856Z,11.30
2023-05-15T12:42:05.824Z,10.23
2023-05-15T12:44:17.449Z,11.87
2023-05-15T12:46:26.211Z,14.83
2023-05-15T12:48:33.300Z,9.97
2023-05-15T12:50:37.262Z,8.20
2023-05-15T12:52:41.548Z,8.67
2023-05-15T12:54:46.017Z,9.03
2023-05-15T12:56:49.877Z,8.53
2023-05-15T12:58:54.516Z,8.07
2023-05-15T13:00:58.865Z,8.93
2023-05-15T13:03:05.478Z,7.70
2023-05-15T13:05:12.504Z,8.57
2023-05-15T13:07:17.409Z,8.07
2023-05-15T13:09:23.048Z,8.50
2023-05-15T13:11:31.919Z,9.00
2023-05-15T13:13:44.018Z,9.27
2023-05-15T13:15:50.591Z,9.37
2023-05-15T13:17:57.419Z,7.17
2023-05-15T13:20:02.425Z,8.60
2023-05-15T13:22:06.670Z,9.87
2023-05-15T13:24:23.812Z,10.60
2023-05-15T13:26:27.757Z,9.20
2023-05-15T13:28:31.494Z,9.07
2023-05-15T13:30:36.663Z,8.80
2023-05-15T13:32:40.433Z,9.33
2023-05-15T13:34:45.208Z,8.17
2023-05-15T13:36:50.056Z,7.73
2023-05-15T13:38:53.527Z,7.70
2023-05-15T13:40:57.205Z,8.03
2023-05-15T13:43:00.696Z,9.07
2023-05-15T13:45:05.729Z,8.20
2023-05-15T13:47:11.573Z,10.83
2023-05-15T13:49:15.488Z,9.97
2023-05-15T13:51:19.342Z,8.70
2023-05-15T13:53:24.778Z,8.30
2023-05-15T13:55:28.555Z,9.43
2023-05-15T13:57:32.866Z,8.53
2023-05-15T13:59:36.627Z,7.10
2023-05-15T14:01:40.328Z,7.47
2023-05-15T14:03:43.988Z,6.23
2023-05-15T14:05:47.722Z,5.40
2023-05-15T14:07:51.350Z,8.30
2023-05-15T14:09:56.518Z,10.73
2023-05-15T14:12:00.199Z,12.50
2023-05-15T14:14:03.878Z,11.13
2023-05-15T14:16:08.173Z,15.43
2023-05-15T14:18:11.710Z,13.20
2023-05-15T14:20:15.476Z,12.70
2023-05-15T14:22:18.926Z,12.53
2023-05-15T14:24:22.513Z,14.37
2023-05-15T14:26:27.423Z,13.70
2023-05-15T14:28:31.110Z,12.63
2023-05-15T14:30:35.292Z,18.13
2023-05-15T14:32:38.870Z,16.97
2023-05-15T14:34:42.603Z,15.50
2023-05-15T14:36:46.602Z,13.93
2023-05-15T14:38:52.041Z,12.43
2023-05-15T14:40:55.473Z,12.50
2023-05-15T14:43:00.436Z,16.60
2023-05-15T14:45:04.861Z,13.60
2023-05-15T14:47:09.950Z,16.20
2023-05-15T14:49:13.523Z,11.33
2023-05-15T14:51:18.397Z,14.37
2023-05-15T14:53:23.486Z,13.77
2023-05-15T14:55:26.971Z,13.00
2023-05-15T14:57:30.395Z,11.47
2023-05-15T14:59:35.317Z,16.10
2023-05-15T15:01:38.785Z,14.53
2023-05-15T15:03:43.680Z,14.57
2023-05-15T15:05:47.817Z,11.53
2023-05-15T15:08:03.578Z,11.57
2023-05-15T15:10:08.264Z,11.70
2023-05-15T15:12:11.851Z,11.37
2023-05-15T15:14:15.443Z,12.10
2023-05-15T15:16:20.592Z,13.70
2023-05-15T15:18:24.371Z,11.97
2023-05-15T15:20:29.201Z,11.23
2023-05-15T15:22:32.633Z,11.63
2023-05-15T15:24:36.149Z,9.70
2023-05-15T15:26:39.898Z,11.00
2023-05-15T15:28:43.381Z,11.33
2023-05-15T15:30:46.817Z,12.10
2023-05-15T15:32:51.864Z,12.73
2023-05-15T15:34:55.394Z,11.40
2023-05-15T15:36:58.887Z,13.33
2023-05-15T15:39:02.431Z,13.40
2023-05-15T15:41:07.588Z,15.43
2023-05-15T15:43:11.380Z,13.47
2023-05-15T15:45:14.907Z,15.00
2023-05-15T15:47:18.678Z,14.60
2023-05-15T15:49:23.531Z,15.87
2023-05-15T15:51:27.341Z,15.70
2023-05-15T15:53:34.013Z,17.70
2023-05-15T15:55:37.480Z,17.60
2023-05-15T15:57:40.968Z,16.13
2023-05-15T15:59:44.806Z,17.17
2023-05-15T16:01:48.712Z,15.33
2023-05-15T16:03:52.305Z,16.63
2023-05-15T16:05:59.186Z,16.87
2023-05-15T16:08:03.444Z,17.50
2023-05-15T16:10:12.989Z,17.67
2023-05-15T16:12:16.988Z,17.30
2023-05-15T16:14:21.399Z,18.80
2023-05-15T16:16:24.942Z,17.70
2023-05-15T16:18:29.065Z,17.80
2023-05-15T16:20:35.060Z,18.43
2023-05-15T16:22:41.773Z,15.80
2023-05-15T16:24:45.318Z,18.93
2023-05-15T16:26:48.882Z,16.90
2023-05-15T16:28:52.639Z,19.53
2023-05-15T16:30:56.674Z,17.63
2023-05-15T16:33:00.772Z,17.33
2023-05-15T16:35:04.645Z,17.93
2023-05-15T16:37:08.111Z,17.20
2023-05-15T16:39:13.083Z,16.93
2023-05-15T16:41:16.864Z,15.57
2023-05-15T16:43:21.732Z,17.67
2023-05-15T16:45:25.459Z,14.53
2023-05-15T16:47:29.643Z,19.70
2023-05-15T16:49:33.564Z,16.93
2023-05-15T16:51:37.192Z,18.07
2023-05-15T16:53:40.885Z,16.53
2023-05-15T16:55:46.725Z,16.37
2023-05-15T16:57:50.654Z,11.87
2023-05-15T16:59:54.480Z,14.07
2023-05-15T17:01:59.258Z,16.80
2023-05-15T17:04:03.452Z,12.70
2023-05-15T17:06:08.088Z,14.97
2023-05-15T17:08:11.704Z,15.57
2023-05-15T17:10:15.392Z,16.47
2023-05-15T17:12:20.217Z,15.50
2023-05-15T17:14:23.954Z,15.90
2023-05-15T17:16:27.325Z,16.17
2023-05-15T17:18:31.424Z,14.13
2023-05-15T17:20:35.073Z,17.43
2023-05-15T17:22:38.785Z,17.37
2023-05-15T17:26:52.809Z,16.87
2023-05-15T17:28:57.661Z,17.33
2023-05-15T17:31:02.083Z,16.80
2023-05-15T17:33:05.505Z,19.63
2023-05-15T17:35:10.195Z,19.03
2023-05-15T17:37:14.192Z,14.77
2023-05-15T17:39:17.705Z,17.00
2023-05-15T17:41:21.603Z,15.07
2023-05-15T17:43:25.068Z,16.57
2023-05-15T17:45:29.753Z,14.20
2023-05-15T17:47:33.312Z,17.27
2023-05-15T17:49:36.774Z,15.67
2023-05-15T17:51:40.448Z,17.20
2023-05-15T17:53:43.780Z,16.23
2023-05-15T17:55:47.186Z,17.17
2023-05-15T17:57:50.614Z,18.27
2023-05-15T17:59:54.033Z,15.67
2023-05-15T18:01:58.897Z,19.73
2023-05-15T18:04:02.833Z,19.73
2023-05-15T18:06:06.635Z,18.47
2023-05-15T18:08:10.136Z,17.10
2023-05-15T18:10:13.523Z,20.77
2023-05-15T18:12:17.038Z,19.30
2023-05-15T18:14:23.105Z,18.83
2023-05-15T18:16:26.645Z,21.43
2023-05-15T18:18:31.774Z,17.07
2023-05-15T18:20:35.425Z,17.63
2023-05-15T18:22:38.867Z,16.27
2023-05-15T18:24:42.424Z,15.70
2023-05-15T18:26:45.913Z,15.27
2023-05-15T18:28:49.386Z,15.47
2023-05-15T18:30:52.917Z,12.47
2023-05-15T18:32:56.249Z,16.80
2023-05-15T18:35:02.611Z,12.90
2023-05-15T18:37:06.598Z,15.17
2023-05-15T18:39:10.143Z,12.70
2023-05-15T18:41:13.686Z,11.73
2023-05-15T18:43:17.289Z,10.53
2023-05-15T18:45:22.243Z,14.73
2023-05-15T18:47:26.031Z,14.73
2023-05-15T18:49:29.944Z,12.07
2023-05-15T18:51:35.450Z,11.97
2023-05-15T18:53:38.924Z,9.33
2023-05-15T18:55:42.281Z,9.63
2023-05-15T18:57:45.759Z,11.67
2023-05-15T18:59:49.186Z,10.70
2023-05-15T19:01:53.791Z,9.87
2023-05-15T19:03:57.784Z,9.33
2023-05-15T19:06:01.263Z,9.23
2023-05-15T19:08:07.191Z,8.83
2023-05-15T19:10:10.885Z,8.57
2023-05-15T19:12:14.178Z,10.30
2023-05-15T19:14:18.509Z,10.80
2023-05-15T19:16:22.070Z,9.33
2023-05-15T19:18:27.088Z,15.23
2023-05-15T19:20:30.453Z,8.30
2023-05-15T19:22:33.816Z,8.57
2023-05-15T19:24:38.493Z,11.13
2023-05-15T19:26:41.936Z,12.07
2023-05-15T19:28:45.323Z,10.10
2023-05-15T19:30:49.672Z,8.57
2023-05-15T19:32:53.302Z,12.60
2023-05-15T19:34:56.800Z,9.47
2023-05-15T19:37:00.266Z,8.77
2023-05-15T19:39:03.735Z,8.27
2023-05-15T19:41:08.561Z,6.60
2023-05-15T19:43:14.011Z,6.17
2023-05-15T19:45:17.968Z,6.63
2023-05-15T19:47:21.697Z,8.97
2023-05-15T19:49:25.029Z,9.90
2023-05-15T19:51:28.357Z,6.33
2023-05-15T19:53:31.832Z,7.13
2023-05-15T19:55:35.238Z,7.80
2023-05-15T19:57:42.559Z,6.00
2023-05-15T19:59:45.937Z,5.47
2023-05-15T20:01:49.394Z,11.00
2023-05-15T20:03:52.907Z,7.53
2023-05-15T20:05:56.334Z,5.23
2023-05-15T20:07:59.706Z,4.73
2023-05-15T20:10:02.972Z,5.47
2023-05-15T20:12:07.002Z,4.10
2023-05-15T20:14:11.788Z,4.00
2023-05-15T20:16:16.520Z,5.70
2023-05-15T20:18:21.630Z,4.97
2023-05-15T20:20:25.213Z,5.10
2023-05-15T20:22:28.792Z,7.93
2023-05-15T20:24:32.283Z,6.13
2023-05-15T20:26:36.285Z,4.33
2023-05-15T20:28:39.686Z,5.63
2023-05-15T20:30:44.604Z,4.77
2023-05-15T20:32:48.007Z,4.53
2023-05-15T20:34:52.048Z,4.17
2023-05-15T20:36:56.211Z,4.90
2023-05-15T20:39:05.498Z,4.17
2023-05-15T20:41:08.815Z,3.63
2023-05-15T20:43:12.317Z,4.73
2023-05-15T20:45:15.958Z,4.10
2023-05-15T20:47:21.216Z,9.13
2023-05-15T20:49:24.708Z,5.70
2023-05-15T20:51:28.126Z,4.83
2023-05-15T20:53:31.689Z,4.10
2023-05-15T20:55:35.007Z,4.43
2023-05-15T20:57:38.444Z,4.27
2023-05-15T20:59:42.335Z,3.83
2023-05-15T21:01:45.990Z,4.03
2023-05-15T21:03:50.991Z,8.20
2023-05-15T21:05:56.745Z,5.23
2023-05-15T21:08:00.824Z,4.53
2023-05-15T21:10:04.619Z,3.83
2023-05-15T21:12:08.716Z,4.17
2023-05-15T21:14:12.247Z,7.00
2023-05-15T21:16:15.820Z,4.73
2023-05-15T21:18:19.264Z,6.00
2023-05-15T21:20:24.262Z,4.30
2023-05-15T21:22:27.705Z,5.37
2023-05-15T21:24:31.042Z,5.40
2023-05-15T21:26:34.385Z,6.57
2023-05-15T21:28:37.762Z,7.17
2023-05-15T21:30:41.094Z,5.23
2023-05-15T21:32:44.410Z,4.77
2023-05-15T21:34:47.822Z,8.30
2023-05-15T21:36:53.224Z,5.67
2023-05-15T21:38:56.542Z,6.70
2023-05-15T21:41:00.981Z,6.10
2023-05-15T21:43:04.356Z,6.17
2023-05-15T21:45:08.666Z,7.77
2023-05-15T21:47:12.333Z,7.83
2023-05-15T21:49:15.778Z,9.53
2023-05-15T21:51:19.147Z,5.20
2023-05-15T21:53:23.988Z,5.50
2023-05-15T21:55:30.009Z,6.73
2023-05-15T21:57:33.722Z,6.37
2023-05-15T21:59:37.009Z,6.00
2023-05-15T22:01:40.998Z,6.40
2023-05-15T22:03:45.162Z,6.47
2023-05-15T22:05:49.961Z,5.37
2023-05-15T22:07:53.270Z,6.17
2023-05-15T22:09:58.000Z,7.30
2023-05-15T22:12:01.409Z,9.10
2023-05-15T22:14:05.251Z,7.87
2023-05-15T22:16:09.466Z,6.30
2023-05-15T22:18:13.890Z,7.43
2023-05-15T22:20:18.865Z,9.00
2023-05-15T22:22:22.368Z,6.17
2023-05-15T22:24:25.705Z,7.40
2023-05-15T22:26:30.437Z,8.40
2023-05-15T22:28:33.778Z,6.93
2023-05-15T22:30:40.048Z,8.30
2023-05-15T22:32:44.077Z,7.60
2023-05-15T22:34:47.621Z,8.37
2023-05-15T22:36:50.915Z,8.77
2023-05-15T22:38:54.293Z,7.50
2023-05-15T22:40:57.682Z,6.70
2023-05-15T22:43:02.620Z,8.93
2023-05-15T22:45:07.105Z,7.93
2023-05-15T22:47:10.686Z,7.17
2023-05-15T22:49:25.281Z,12.43
2023-05-15T22:51:30.197Z,8.43
2023-05-15T22:53:33.534Z,7.80
2023-05-15T22:55:36.993Z,7.43
2023-05-15T22:57:40.352Z,8.90
2023-05-15T22:59:45.353Z,5.83
2023-05-15T23:01:50.281Z,9.63
2023-05-15T23:03:53.820Z,6.20
2023-05-15T23:05:57.120Z,6.47
2023-05-15T23:08:00.480Z,6.27
2023-05-15T23:10:03.994Z,5.33
2023-05-15T23:12:07.926Z,9.00
2023-05-15T23:14:12.476Z,9.63
2023-05-15T23:16:17.171Z,7.50
2023-05-15T23:18:20.679Z,6.40
2023-05-15T23:20:24.180Z,7.17
2023-05-15T23:22:27.688Z,10.07
2023-05-15T23:24:31.057Z,9.20
2023-05-15T23:26:34.500Z,5.20
2023-05-15T23:28:37.979Z,7.20
2023-05-15T23:30:41.441Z,5.50
2023-05-15T23:32:46.245Z,5.13
2023-05-15T23:34:49.637Z,6.23
2023-05-15T23:36:53.994Z,5.43
2023-05-15T23:38:57.609Z,4.07
2023-05-15T23:41:00.938Z,8.37
2023-05-15T23:43:04.257Z,3.87
2023-05-15T23:45:09.124Z,6.33
2023-05-15T23:47:13.159Z,5.77
2023-05-15T23:49:18.078Z,4.10
2023-05-15T23:51:22.153Z,5.77
2023-05-15T23:53:25.743Z,5.87
2023-05-15T23:55:29.221Z,3.93
2023-05-15T23:57:32.604Z,3.83
2023-05-15T23:59:36.244Z,4.40
